2022年8月18日

时间 代码 天气 温度 能见度 天花板 METAR/SPECI
22:00
V
20 °C 10 km+ - 300° 300° 4 kt METAR LFSL 182000Z AUTO 30004KT CAVOK 20/12 Q1017 NOSIG
21:30
V
21 °C 10 km+ - 300° 300° 6 kt METAR LFSL 181930Z AUTO 30006KT CAVOK 21/13 Q1017 NOSIG
21:00
V
23 °C 10 km+ - 310° 310° 9 kt METAR LFSL 181900Z AUTO 31009KT CAVOK 23/12 Q1017 NOSIG
20:30
V
24 °C 10 km+ - 320° 320° 11 kt METAR LFSL 181830Z AUTO 32011KT CAVOK 24/13 Q1016 NOSIG
20:00
V
24 °C 10 km+ - 320° 320° 10 kt METAR LFSL 181800Z AUTO 32010KT CAVOK 24/12 Q1016 NOSIG
19:30
V
25 °C 10 km+ - 320° 320° 13 kt METAR LFSL 181730Z AUTO 32013KT 280V340 CAVOK 25/12 Q1016 NOSIG
19:00
V
25 °C 10 km+ - 310° 310° 11 kt METAR LFSL 181700Z AUTO 31011KT 260V330 CAVOK 25/11 Q1016 NOSIG
18:30
V
25 °C 10 km+ - 320° 320° 10 kt METAR LFSL 181630Z AUTO 32010KT 280V350 CAVOK 25/12 Q1016 NOSIG
18:00
V
25 °C 10 km+ - 330° 330° 14 kt METAR LFSL 181600Z AUTO 33014KT CAVOK 25/12 Q1015 NOSIG
17:30
V
24 °C 10 km+ - 300° 300° 12 kt METAR LFSL 181530Z AUTO 30012KT CAVOK 24/11 Q1016 NOSIG
17:00
V
25 °C 10 km+ - 310° 310° 13 kt METAR LFSL 181500Z AUTO 31013KT 280V340 CAVOK 25/12 Q1016 NOSIG
16:30
V
26 °C 10 km+ - 320° 320° 10 kt METAR LFSL 181430Z AUTO 32010KT 270V360 CAVOK 26/13 Q1016 NOSIG
16:00
V
25 °C 10 km+ 7.600 ft 310° 310° 10 kt METAR LFSL 181400Z AUTO 31010KT 270V350 9999 SCT049 BKN076 25/12 Q1016 TEMPO 4000 SHRA BKN030TCU
15:30
V
25 °C 10 km+ - 310° 310° 12 kt METAR LFSL 181330Z AUTO 31012KT 280V340 CAVOK 25/12 Q1016 TEMPO 4000 SHRA BKN030TCU
15:00
V
24 °C 10 km+ - 290° 290° 9 kt METAR LFSL 181300Z AUTO 29009KT 190V320 CAVOK 24/13 Q1016 TEMPO 4000 SHRA BKN030TCU
14:30
V
23 °C 10 km+ 4.100 ft 280° 280° 10 kt METAR LFSL 181230Z AUTO 28010KT 200V310 9999 BKN041 BKN048 BKN054 23/14 Q1016 TEMPO 4000 SHRA BKN030TCU
14:00
V
23 °C 10 km+ 7.200 ft 300° 300° 7 kt METAR LFSL 181200Z AUTO 30007KT 210V350 9999 FEW041 BKN072 23/14 Q1016 TEMPO 4000 SHRA BKN030TCU
13:30
V
23 °C 10 km+ 6.600 ft 300° 300° 6 kt METAR LFSL 181130Z AUTO 30006KT 230V340 9999 FEW037 BKN066 23/13 Q1016 TEMPO 4000 -SHRA BKN030TCU
13:00
V
24 °C 10 km+ 5.800 ft 290° 290° 6 kt METAR LFSL 181100Z AUTO 29006KT 200V340 9999 FEW037 BKN058 BKN068 24/13 Q1016 TEMPO 4000 -SHRA BKN030TCU
12:30
V
23 °C 10 km+ - 010° 010° 3 kt METAR LFSL 181030Z AUTO 01003KT 300V110 9999 SCT035 23/13 Q1016 TEMPO 4000 -SHRA BKN030TCU
12:00
V
23 °C 10 km+ - 330° 330° 7 kt METAR LFSL 181000Z AUTO 33007KT 280V040 CAVOK 23/13 Q1016 TEMPO 4000 -SHRA BKN030TCU
11:30
V
22 °C 10 km+ - 330° 330° 7 kt METAR LFSL 180930Z AUTO 33007KT 260V020 9999 FEW032 22/13 Q1015 TEMPO 4000 -SHRA BKN030TCU
11:00
V
21 °C 10 km+ - 310° 310° 6 kt METAR LFSL 180900Z AUTO 31006KT 270V360 CAVOK 21/14 Q1015 TEMPO 4000 -SHRA BKN030TCU
10:30
V
20 °C 10 km+ - Var Var 2 kt METAR LFSL 180830Z AUTO VRB02KT CAVOK 20/14 Q1016 TEMPO SCT025TCU
10:00
V
19 °C 10 km+ - Var Var 1 kt METAR LFSL 180800Z AUTO VRB01KT CAVOK 19/14 Q1016 TEMPO SCT025TCU
09:30
V
18 °C 10 km+ - Var Var 3 kt METAR LFSL 180730Z AUTO VRB03KT 9999 FEW028 18/15 Q1016 TEMPO SCT025TCU
09:00
V
16 °C 10 km+ - Var Var 3 kt METAR LFSL 180700Z AUTO VRB03KT CAVOK 16/14 Q1015 NOSIG
08:30
V
16 °C 10 km+ - 300° 300° 3 kt METAR LFSL 180630Z AUTO 30003KT 260V320 CAVOK 16/15 Q1015 NOSIG
08:00
V
16 °C 10 km+ - 300° 300° 6 kt METAR LFSL 180600Z AUTO 30006KT CAVOK 16/15 Q1015 NOSIG
07:30
V
16 °C 10 km+ - 300° 300° 5 kt METAR LFSL 180530Z AUTO 30005KT 250V330 CAVOK 16/14 Q1015 NOSIG
07:00
V
16 °C 10 km+ - 310° 310° 3 kt METAR LFSL 180500Z AUTO 31003KT CAVOK 16/14 Q1015 NOSIG
06:30
V
16 °C 10 km+ - 310° 310° 5 kt METAR LFSL 180430Z AUTO 31005KT CAVOK 16/14 Q1014 NOSIG
06:00
V
16 °C 10 km+ - 290° 290° 3 kt METAR LFSL 180400Z AUTO 29003KT 260V320 CAVOK 16/14 Q1014 NOSIG
05:30
V
15 °C 10 km+ - 290° 290° 4 kt METAR LFSL 180330Z AUTO 29004KT 250V320 CAVOK 15/14 Q1014 NOSIG
05:00
V
15 °C 10 km+ - 310° 310° 3 kt METAR LFSL 180300Z AUTO 31003KT 270V330 CAVOK 15/14 Q1014 NOSIG
04:30
V
15 °C 10 km+ - Var Var 3 kt METAR LFSL 180230Z AUTO VRB03KT CAVOK 15/14 Q1014
04:00
V
16 °C 10 km+ - 290° 290° 4 kt METAR LFSL 180200Z AUTO 29004KT 260V320 CAVOK 16/14 Q1014
03:30
V
16 °C 10 km+ - 300° 300° 6 kt METAR LFSL 180130Z AUTO 30006KT CAVOK 16/14 Q1014
03:00
V
16 °C 10 km+ - 290° 290° 4 kt METAR LFSL 180100Z AUTO 29004KT CAVOK 16/14 Q1014
02:30
V
16 °C 10 km+ - 290° 290° 4 kt METAR LFSL 180030Z AUTO 29004KT CAVOK 16/14 Q1014
02:00
V
17 °C 10 km+ - Var Var 1 kt METAR LFSL 180000Z AUTO VRB01KT CAVOK 17/14 Q1014
01:30
V
18 °C 10 km+ - 310° 310° 3 kt METAR LFSL 172330Z AUTO 31003KT 270V340 CAVOK 18/14 Q1015
01:00
V
19 °C 10 km+ - 290° 290° 6 kt METAR LFSL 172300Z AUTO 29006KT 250V320 9999 -RA ///TCU 19/14 Q1015
00:30
V
19 °C 10 km+ - 270° 270° 5 kt METAR LFSL 172230Z AUTO 27005KT 230V310 CAVOK 19/15 Q1015
00:00
V
19 °C 10 km+ - 280° 280° 5 kt METAR LFSL 172200Z AUTO 28005KT 230V310 CAVOK 19/15 Q1014

2022年8月17日

时间 代码 天气 温度 能见度 天花板 METAR/SPECI
23:30
V
19 °C 10 km+ - Var Var 2 kt METAR LFSL 172130Z AUTO VRB02KT 9999 //////TCU 19/15 Q1014
23:00
V
19 °C 10 km+ - 280° 280° 2 kt METAR LFSL 172100Z AUTO 28002KT CAVOK 19/15 Q1014
22:30
V
19 °C 10 km+ - Var Var 2 kt METAR LFSL 172030Z AUTO VRB02KT CAVOK 19/15 Q1014
22:00
V
19 °C 10 km+ - 280° 280° 3 kt METAR LFSL 172000Z AUTO 28003KT CAVOK 19/15 Q1013 TEMPO 4000 SHRA BKN035TCU
21:30
V
20 °C 10 km+ - Var Var 2 kt METAR LFSL 171930Z AUTO VRB02KT CAVOK 20/15 Q1013 TEMPO 4000 SHRA BKN035TCU
21:00
V
21 °C 10 km+ - 280° 280° 4 kt METAR LFSL 171900Z AUTO 28004KT 240V310 CAVOK 21/14 Q1013 TEMPO 4000 SHRA BKN035TCU
20:30
V
22 °C 10 km+ - Var Var 3 kt METAR LFSL 171830Z AUTO VRB03KT CAVOK 22/14 Q1013 TEMPO 4000 SHRA BKN035TCU
20:00
V
23 °C 10 km+ - 300° 300° 8 kt METAR LFSL 171800Z AUTO 30008KT 250V320 CAVOK 23/13 Q1013 TEMPO 4000 SHRA BKN035TCU
19:30
V
23 °C 10 km+ - 300° 300° 9 kt METAR LFSL 171730Z AUTO 30009KT 9999 FEW039 23/15 Q1012 TEMPO 4000 SHRA BKN035TCU
19:00
V
24 °C 10 km+ - 290° 290° 9 kt METAR LFSL 171700Z AUTO 29009KT 260V320 9999 SCT043 24/14 Q1012 TEMPO 4000 SHRA BKN035TCU
18:30
V
24 °C 10 km+ - Var Var 6 kt METAR LFSL 171630Z AUTO VRB06KT 9999 FEW043 24/13 Q1012 TEMPO 4000 SHRA BKN035TCU
18:00
V
25 °C 10 km+ - 260° 260° 6 kt METAR LFSL 171600Z AUTO 26006KT 190V310 9999 FEW040 25/14 Q1012 TEMPO 4000 SHRA BKN035TCU
17:30
V
24 °C 10 km+ - 290° 290° 8 kt METAR LFSL 171530Z AUTO 29008KT 190V320 CAVOK 24/14 Q1012 TEMPO 4000 SHRA BKN035TCU
17:00
V
25 °C 10 km+ - 300° 300° 12 kt METAR LFSL 171500Z AUTO 30012KT 230V320 CAVOK 25/15 Q1012 TEMPO 4000 SHRA BKN035TCU
16:30
V
25 °C 10 km+ - 290° 290° 8 kt METAR LFSL 171430Z AUTO 29008KT 220V330 9999 SCT046 SCT054 25/14 Q1011 TEMPO 4000 SHRA BKN035TCU
16:00
V
25 °C 10 km+ 4.500 ft 300° 300° 9 kt METAR LFSL 171400Z AUTO 30009KT 240V330 9999 BKN045 BKN056 25/14 Q1011 TEMPO 4000 SHRA BKN035TCU
15:30
V
25 °C 10 km+ - 280° 280° 6 kt METAR LFSL 171330Z AUTO 28006KT 200V320 9999 FEW041 25/14 Q1012 TEMPO 4000 SHRA BKN035TCU
15:00
V
25 °C 10 km+ - Var Var 5 kt METAR LFSL 171300Z AUTO VRB05KT 9999 FEW039 25/14 Q1011 TEMPO 4000 SHRA BKN035TCU
14:30
V
24 °C 10 km+ 4.200 ft Var Var 4 kt METAR LFSL 171230Z AUTO VRB04KT 9999 FEW036 BKN042 BKN056 24/14 Q1012 TEMPO 4000 SHRA BKN035TCU
14:00
V
24 °C 10 km+ - Var Var 3 kt METAR LFSL 171200Z AUTO VRB03KT CAVOK 24/14 Q1012 TEMPO 4000 SHRA BKN035TCU
13:30
V
23 °C 10 km+ 6.000 ft 230° 230° 4 kt METAR LFSL 171130Z AUTO 23004KT 140V300 9999 SCT029 SCT034 BKN060 23/14 Q1012 TEMPO 4000 SHRA BKN035TCU
13:00
M
22 °C 10 km+ 2.700 ft 280° 280° 4 kt METAR LFSL 171100Z AUTO 28004KT 210V320 9999 BKN027 OVC054 22/15 Q1012 TEMPO 4000 SHRA BKN035TCU
12:30
V
22 °C 10 km+ 5.600 ft 320° 320° 4 kt METAR LFSL 171030Z AUTO 32004KT 240V360 9999 SCT024 SCT031 OVC056 22/16 Q1012 TEMPO 4000 SHRA BKN035TCU
12:00
V
21 °C 10 km+ - Var Var 2 kt METAR LFSL 171000Z AUTO VRB02KT CAVOK 21/16 Q1012 TEMPO 4000 SHRA BKN035TCU
11:30
V
21 °C 10 km+ 5.600 ft Var Var 3 kt METAR LFSL 170930Z AUTO VRB03KT 9999 FEW016 OVC056 21/15 Q1012 TEMPO 4000 SHRA BKN035TCU
11:00
V
20 °C 10 km+ 5.800 ft 270° 270° 5 kt METAR LFSL 170900Z AUTO 27005KT 190V320 9999 SCT015 BKN058 BKN100 20/16 Q1012 TEMPO 4000 SHRA BKN035TCU
10:30
I
19 °C 10 km+ 700 ft 210° 210° 3 kt METAR LFSL 170830Z AUTO 21003KT 160V280 9999 BKN007 BKN056 19/16 Q1012 TEMPO 4000 SHRA BKN014 BKN035TCU
10:00
V
18 °C 10 km+ - 150° 150° 3 kt METAR LFSL 170800Z AUTO 15003KT 110V210 9999 FEW005 SCT060 18/16 Q1012 TEMPO 4000 SHRA BKN014 BKN035TCU
09:30
L
16 °C 10 km+ 300 ft 170° 170° 5 kt METAR LFSL 170730Z AUTO 17005KT 120V230 9999 BKN003 BKN060 16/16 Q1012 TEMPO 4000 SHRA BKN014 BKN035TCU
09:00
L
16 °C 10 km+ - 160° 160° 5 kt METAR LFSL 170700Z AUTO 16005KT 130V200 9999 VV/// 16/16 Q1012 TEMPO 1200 BR BECMG NSC
08:30
L
16 °C 900 m - 140° 140° 4 kt METAR LFSL 170630Z AUTO 14004KT 110V190 0900 R29/1300U FG VV/// 16/15 Q1012 BECMG CAVOK
08:00
L
15 °C 1,6 km - Var Var 3 kt METAR LFSL 170600Z AUTO VRB03KT 1600 BR VV/// 15/15 Q1011 BECMG CAVOK
07:30
L
15 °C 8 km - Var Var 2 kt METAR LFSL 170530Z AUTO VRB02KT 8000 VV/// 15/15 Q1011 TEMPO 4000 SHRA BKN015 BKN060TCU
07:00
L
15 °C 450 m - Var Var 3 kt METAR LFSL 170500Z AUTO VRB03KT 0500 0450 R29/0550N FG VV/// 15/15 Q1011 TEMPO 4000 SHRA BKN015 BKN060TCU
06:30
L
15 °C 2 km - Var Var 2 kt METAR LFSL 170430Z AUTO VRB02KT 9999 2000 VV/// 15/14 Q1011 TEMPO 4000 SHRA BKN015 BKN060TCU
06:00
V
15 °C 10 km+ 7.400 ft 200° 200° 3 kt METAR LFSL 170400Z AUTO 20003KT 160V230 9999 FEW002 BKN074 15/14 Q1010 TEMPO 4000 SHRA BKN015 BKN060TCU
05:30
V
14 °C 10 km+ - Var Var 2 kt METAR LFSL 170330Z AUTO VRB02KT CAVOK 14/14 Q1010 TEMPO 4000 SHRA BKN015 BKN060TCU
05:00
V
15 °C 10 km+ - Var Var 2 kt METAR LFSL 170300Z AUTO VRB02KT CAVOK 15/14 Q1010
04:30
V
15 °C 10 km+ - Var Var 2 kt METAR LFSL 170230Z AUTO VRB02KT CAVOK 15/14 Q1010
04:00
V
16 °C 10 km+ 14.000 ft Var Var 1 kt METAR LFSL 170200Z AUTO VRB01KT 9999 FEW003 BKN140 BKN190 16/15 Q1010
03:30
V
16 °C 10 km+ 10.000 ft Var Var 3 kt METAR LFSL 170130Z AUTO VRB03KT 9999 -RA FEW003/// OVC100/// ///CB 16/15 Q1011
03:00
V
16 °C 8 km - Var Var 5 kt METAR LFSL 170100Z AUTO VRB05KT 8000 RA //////CB 16/15 Q1011
02:30
M
17 °C 6 km 9.400 ft 280° 280° 10 kt METAR LFSL 170030Z AUTO 28010KT 250V310 6000 +RA VCTS FEW010/// BKN094/// OVC110/// ///CB 17/15 Q1012
02:00
M
18 °C 5 km 6.400 ft 260° 260° 7 kt METAR LFSL 170000Z AUTO 26007KT 210V300 5000 TSRA BR SCT018/// BKN064/// BKN092/// //////CB 18/17 Q1012
01:30
V
18 °C 10 km+ - 300° 300° 7 kt METAR LFSL 162330Z AUTO 30007KT 270V330 9999 VCTS ///CB 18/17 Q1010
01:00
V
18 °C 10 km+ - 300° 300° 4 kt METAR LFSL 162300Z AUTO 30004KT 270V340 9999 ///CB 18/16 Q1010
00:30
V
17 °C 10 km+ - Var 000° 0 kt METAR LFSL 162230Z AUTO 00000KT 9999 //////CB 17/16 Q1009
00:00
V
18 °C 10 km+ - Var Var 1 kt METAR LFSL 162200Z AUTO VRB01KT CAVOK 18/16 Q1009

2022年8月16日

时间 代码 天气 温度 能见度 天花板 METAR/SPECI
23:30
V
19 °C 10 km+ - 050° 050° 3 kt METAR LFSL 162130Z AUTO 05003KT 030V090 CAVOK 19/17 Q1009
23:00
V
19 °C 10 km+ - Var 000° 0 kt METAR LFSL 162100Z AUTO 00000KT 9999 //////TCU 19/17 Q1011
22:30
V
20 °C 10 km+ - Var Var 2 kt METAR LFSL 162030Z AUTO VRB02KT 9999 //////CB 20/17 Q1010
22:00
V
20 °C 10 km+ - 150° 150° 3 kt METAR LFSL 162000Z AUTO 15003KT 100V190 9999 -RA ///CB 20/16 Q1010 TEMPO VRB15G30KT 2500 TSRA
21:30
V
21 °C 10 km+ - 150° 150° 4 kt METAR LFSL 161930Z AUTO 15004KT 110V190 9999 //////CB 21/16 Q1010 TEMPO VRB15G30KT 2500 TSRA
21:00
V
21 °C 10 km+ - Var Var 3 kt METAR LFSL 161900Z AUTO VRB03KT CAVOK 21/16 Q1009 TEMPO VRB15G30KT 2500 TSRA BKN030CB
20:30
V
22 °C 10 km+ - 120° 120° 4 kt METAR LFSL 161830Z AUTO 12004KT CAVOK 22/16 Q1009 TEMPO VRB15G30KT 2500 TSRA BKN030CB
20:00
V
22 °C 10 km+ 10.000 ft Var Var 2 kt METAR LFSL 161800Z AUTO VRB02KT 9999 FEW033/// BKN100/// //////TCU 22/16 Q1009 TEMPO VRB15G30KT 2500 TSRA BKN030CB
19:30
V
22 °C 10 km+ 11.000 ft 120° 120° 4 kt METAR LFSL 161730Z AUTO 12004KT 100V190 9999 FEW038/// SCT094/// BKN110/// //////CB 22/17 Q1009 TEMPO VRB15G30KT 2500 TSRA
19:00
V
22 °C 10 km+ 9.400 ft 320° 320° 6 kt METAR LFSL 161700Z AUTO 32006KT 250V340 9999 -RA FEW033/// BKN094/// BKN110/// //////CB 22/17 Q1009 TEMPO VRB15G30KT 2500 TSRA
18:30
V
25 °C 10 km+ - 290° 290° 8 kt METAR LFSL 161630Z AUTO 29008KT 250V320 9999 //////CB 25/15 Q1009 TEMPO VRB15G30KT 2500 TSRA
18:00
V
25 °C 10 km+ - 310° 310° 8 kt METAR LFSL 161600Z AUTO 31008KT 9999 //////CB 25/14 Q1008 TEMPO VRB15G30KT 2500 TSRA
17:30
V
26 °C 10 km+ - 340° 340° 12 kt METAR LFSL 161530Z AUTO 34012KT CAVOK 26/14 Q1008 TEMPO VRB15G30KT 2500 TSRA BKN030CB
17:00
V
26 °C 10 km+ - 320° 320° 12 kt METAR LFSL 161500Z AUTO 32012KT CAVOK 26/14 Q1008 TEMPO VRB15G30KT 2500 TSRA BKN030CB
较旧的数据

我们和第三方通过cookies跟踪您在我们网站上的上网行为。如果您继续,我们认为您同意我们的cookie政策。 了解更多